sensor_id;sensor_type;location;lat;lon;timestamp;temperature;humidity
7349;DHT22;13010;-33.424;-70.614;2023-03-14T00:01:53;19.30;99.90
7349;DHT22;13010;-33.424;-70.614;2023-03-14T00:04:43;19.20;99.90
7349;DHT22;13010;-33.424;-70.614;2023-03-14T00:07:32;19.00;99.90
7349;DHT22;13010;-33.424;-70.614;2023-03-14T00:10:22;18.90;99.90
7349;DHT22;13010;-33.424;-70.614;2023-03-14T00:13:11;18.70;99.90
7349;DHT22;13010;-33.424;-70.614;2023-03-14T00:16:05;18.60;99.90
7349;DHT22;13010;-33.424;-70.614;2023-03-14T00:18:54;18.60;99.90
7349;DHT22;13010;-33.424;-70.614;2023-03-14T00:21:43;18.60;99.90
7349;DHT22;13010;-33.424;-70.614;2023-03-14T00:24:32;18.70;99.90
7349;DHT22;13010;-33.424;-70.614;2023-03-14T00:27:21;18.50;99.90
7349;DHT22;13010;-33.424;-70.614;2023-03-14T00:30:11;18.30;99.90
7349;DHT22;13010;-33.424;-70.614;2023-03-14T00:33:02;17.90;99.90
7349;DHT22;13010;-33.424;-70.614;2023-03-14T00:35:55;17.80;99.90
7349;DHT22;13010;-33.424;-70.614;2023-03-14T00:38:45;17.70;99.90
7349;DHT22;13010;-33.424;-70.614;2023-03-14T00:41:34;17.60;99.90
7349;DHT22;13010;-33.424;-70.614;2023-03-14T00:44:24;17.40;99.90
7349;DHT22;13010;-33.424;-70.614;2023-03-14T00:47:13;17.20;99.90
7349;DHT22;13010;-33.424;-70.614;2023-03-14T00:50:04;17.10;99.90
7349;DHT22;13010;-33.424;-70.614;2023-03-14T00:52:53;16.80;99.90
7349;DHT22;13010;-33.424;-70.614;2023-03-14T00:55:43;16.60;99.90
7349;DHT22;13010;-33.424;-70.614;2023-03-14T00:58:32;16.40;99.90
7349;DHT22;13010;-33.424;-70.614;2023-03-14T01:01:21;16.40;99.90
7349;DHT22;13010;-33.424;-70.614;2023-03-14T01:04:11;16.30;99.90
7349;DHT22;13010;-33.424;-70.614;2023-03-14T01:07:02;16.30;99.90
7349;DHT22;13010;-33.424;-70.614;2023-03-14T01:09:52;16.20;99.90
7349;DHT22;13010;-33.424;-70.614;2023-03-14T01:12:42;16.10;99.90
7349;DHT22;13010;-33.424;-70.614;2023-03-14T01:15:32;15.90;99.90
7349;DHT22;13010;-33.424;-70.614;2023-03-14T01:18:23;15.80;99.90
7349;DHT22;13010;-33.424;-70.614;2023-03-14T01:21:14;15.60;99.90
7349;DHT22;13010;-33.424;-70.614;2023-03-14T01:24:07;15.60;99.90
7349;DHT22;13010;-33.424;-70.614;2023-03-14T01:26:55;15.60;99.90
7349;DHT22;13010;-33.424;-70.614;2023-03-14T01:29:44;15.60;99.90
7349;DHT22;13010;-33.424;-70.614;2023-03-14T01:32:34;15.40;99.90
7349;DHT22;13010;-33.424;-70.614;2023-03-14T01:35:23;15.30;99.90
7349;DHT22;13010;-33.424;-70.614;2023-03-14T01:38:12;15.20;99.90
7349;DHT22;13010;-33.424;-70.614;2023-03-14T01:41:03;15.10;99.90
7349;DHT22;13010;-33.424;-70.614;2023-03-14T01:43:52;15.00;99.90
7349;DHT22;13010;-33.424;-70.614;2023-03-14T01:46:42;14.90;99.90
7349;DHT22;13010;-33.424;-70.614;2023-03-14T01:49:33;14.90;99.90
7349;DHT22;13010;-33.424;-70.614;2023-03-14T01:52:25;14.90;99.90
7349;DHT22;13010;-33.424;-70.614;2023-03-14T01:55:21;15.00;99.90
7349;DHT22;13010;-33.424;-70.614;2023-03-14T01:58:12;15.10;99.90
7349;DHT22;13010;-33.424;-70.614;2023-03-14T02:01:02;15.10;99.90
7349;DHT22;13010;-33.424;-70.614;2023-03-14T02:03:54;15.00;99.90
7349;DHT22;13010;-33.424;-70.614;2023-03-14T02:06:50;14.90;99.90
7349;DHT22;13010;-33.424;-70.614;2023-03-14T02:09:41;14.90;99.90
7349;DHT22;13010;-33.424;-70.614;2023-03-14T02:12:30;14.80;99.90
7349;DHT22;13010;-33.424;-70.614;2023-03-14T02:15:22;14.70;99.90
7349;DHT22;13010;-33.424;-70.614;2023-03-14T02:18:11;14.70;99.90
7349;DHT22;13010;-33.424;-70.614;2023-03-14T02:21:04;14.60;99.90
7349;DHT22;13010;-33.424;-70.614;2023-03-14T02:24:00;14.60;99.90
7349;DHT22;13010;-33.424;-70.614;2023-03-14T02:27:10;14.50;99.90
7349;DHT22;13010;-33.424;-70.614;2023-03-14T02:30:01;14.40;99.90
7349;DHT22;13010;-33.424;-70.614;2023-03-14T02:32:54;14.30;99.90
7349;DHT22;13010;-33.424;-70.614;2023-03-14T02:35:46;14.40;99.90
7349;DHT22;13010;-33.424;-70.614;2023-03-14T02:38:39;14.40;99.90
7349;DHT22;13010;-33.424;-70.614;2023-03-14T02:41:29;14.40;99.90
7349;DHT22;13010;-33.424;-70.614;2023-03-14T02:44:20;14.40;99.90
7349;DHT22;13010;-33.424;-70.614;2023-03-14T02:47:09;14.50;99.90
7349;DHT22;13010;-33.424;-70.614;2023-03-14T02:50:04;14.40;99.90
7349;DHT22;13010;-33.424;-70.614;2023-03-14T02:52:52;14.50;99.90
7349;DHT22;13010;-33.424;-70.614;2023-03-14T02:55:45;14.50;99.90
7349;DHT22;13010;-33.424;-70.614;2023-03-14T02:58:34;14.40;99.90
7349;DHT22;13010;-33.424;-70.614;2023-03-14T03:01:26;14.40;99.90
7349;DHT22;13010;-33.424;-70.614;2023-03-14T03:04:14;14.40;99.90
7349;DHT22;13010;-33.424;-70.614;2023-03-14T03:07:03;14.30;99.90
7349;DHT22;13010;-33.424;-70.614;2023-03-14T03:09:52;14.30;99.90
7349;DHT22;13010;-33.424;-70.614;2023-03-14T03:12:41;14.20;99.90
7349;DHT22;13010;-33.424;-70.614;2023-03-14T03:15:30;14.20;99.90
7349;DHT22;13010;-33.424;-70.614;2023-03-14T03:18:21;14.20;99.90
7349;DHT22;13010;-33.424;-70.614;2023-03-14T03:21:10;14.10;99.90
7349;DHT22;13010;-33.424;-70.614;2023-03-14T03:23:59;14.10;99.90
7349;DHT22;13010;-33.424;-70.614;2023-03-14T03:26:48;14.10;99.90
7349;DHT22;13010;-33.424;-70.614;2023-03-14T03:29:36;14.00;99.90
7349;DHT22;13010;-33.424;-70.614;2023-03-14T03:32:28;14.00;99.90
7349;DHT22;13010;-33.424;-70.614;2023-03-14T03:35:19;14.00;99.90
7349;DHT22;13010;-33.424;-70.614;2023-03-14T03:38:08;13.90;99.90
7349;DHT22;13010;-33.424;-70.614;2023-03-14T03:40:57;13.70;99.90
7349;DHT22;13010;-33.424;-70.614;2023-03-14T03:43:46;13.70;99.90
7349;DHT22;13010;-33.424;-70.614;2023-03-14T03:46:35;13.60;99.90
7349;DHT22;13010;-33.424;-70.614;2023-03-14T03:49:24;13.40;99.90
7349;DHT22;13010;-33.424;-70.614;2023-03-14T03:52:14;13.20;99.90
7349;DHT22;13010;-33.424;-70.614;2023-03-14T03:55:03;13.00;99.90
7349;DHT22;13010;-33.424;-70.614;2023-03-14T03:57:53;12.90;99.90
7349;DHT22;13010;-33.424;-70.614;2023-03-14T04:00:42;12.60;99.90
7349;DHT22;13010;-33.424;-70.614;2023-03-14T04:03:31;12.50;99.90
7349;DHT22;13010;-33.424;-70.614;2023-03-14T04:06:20;12.50;99.90
7349;DHT22;13010;-33.424;-70.614;2023-03-14T04:09:11;12.50;99.90
7349;DHT22;13010;-33.424;-70.614;2023-03-14T04:12:00;12.40;99.90
7349;DHT22;13010;-33.424;-70.614;2023-03-14T04:14:49;12.40;99.90
7349;DHT22;13010;-33.424;-70.614;2023-03-14T04:17:37;12.40;99.90
7349;DHT22;13010;-33.424;-70.614;2023-03-14T04:20:26;12.40;99.90
7349;DHT22;13010;-33.424;-70.614;2023-03-14T04:23:15;12.30;99.90
7349;DHT22;13010;-33.424;-70.614;2023-03-14T04:26:06;12.10;99.90
7349;DHT22;13010;-33.424;-70.614;2023-03-14T04:28:55;12.10;99.90
7349;DHT22;13010;-33.424;-70.614;2023-03-14T04:31:44;12.10;99.90
7349;DHT22;13010;-33.424;-70.614;2023-03-14T04:34:33;12.10;99.90
7349;DHT22;13010;-33.424;-70.614;2023-03-14T04:37:22;12.00;99.90
7349;DHT22;13010;-33.424;-70.614;2023-03-14T04:40:11;12.10;99.90
7349;DHT22;13010;-33.424;-70.614;2023-03-14T04:43:02;12.00;99.90
7349;DHT22;13010;-33.424;-70.614;2023-03-14T04:45:51;11.90;99.90
7349;DHT22;13010;-33.424;-70.614;2023-03-14T04:48:40;12.00;99.90
7349;DHT22;13010;-33.424;-70.614;2023-03-14T04:51:29;11.90;99.90
7349;DHT22;13010;-33.424;-70.614;2023-03-14T04:54:18;11.80;99.90
7349;DHT22;13010;-33.424;-70.614;2023-03-14T04:57:07;11.70;99.90
7349;DHT22;13010;-33.424;-70.614;2023-03-14T04:59:58;11.70;99.90
7349;DHT22;13010;-33.424;-70.614;2023-03-14T05:02:52;11.50;99.90
7349;DHT22;13010;-33.424;-70.614;2023-03-14T05:05:41;11.40;99.90
7349;DHT22;13010;-33.424;-70.614;2023-03-14T05:08:30;11.30;99.90
7349;DHT22;13010;-33.424;-70.614;2023-03-14T05:11:19;11.20;99.90
7349;DHT22;13010;-33.424;-70.614;2023-03-14T05:14:08;11.10;99.90
7349;DHT22;13010;-33.424;-70.614;2023-03-14T05:16:59;11.10;99.90
7349;DHT22;13010;-33.424;-70.614;2023-03-14T05:19:50;11.10;99.90
7349;DHT22;13010;-33.424;-70.614;2023-03-14T05:22:40;11.20;99.90
7349;DHT22;13010;-33.424;-70.614;2023-03-14T05:25:29;11.20;99.90
7349;DHT22;13010;-33.424;-70.614;2023-03-14T05:28:17;11.10;99.90
7349;DHT22;13010;-33.424;-70.614;2023-03-14T05:31:08;11.10;99.90
7349;DHT22;13010;-33.424;-70.614;2023-03-14T05:33:59;11.10;99.90
7349;DHT22;13010;-33.424;-70.614;2023-03-14T05:36:48;10.90;99.90
7349;DHT22;13010;-33.424;-70.614;2023-03-14T05:39:37;10.80;99.90
7349;DHT22;13010;-33.424;-70.614;2023-03-14T05:42:26;10.90;99.90
7349;DHT22;13010;-33.424;-70.614;2023-03-14T05:45:15;10.70;99.90
7349;DHT22;13010;-33.424;-70.614;2023-03-14T05:48:04;10.70;99.90
7349;DHT22;13010;-33.424;-70.614;2023-03-14T05:50:58;10.70;99.90
7349;DHT22;13010;-33.424;-70.614;2023-03-14T05:53:47;10.60;99.90
7349;DHT22;13010;-33.424;-70.614;2023-03-14T05:56:36;10.50;99.90
7349;DHT22;13010;-33.424;-70.614;2023-03-14T05:59:25;10.40;99.90
7349;DHT22;13010;-33.424;-70.614;2023-03-14T06:02:14;10.30;99.90
7349;DHT22;13010;-33.424;-70.614;2023-03-14T06:05:03;10.60;99.90
7349;DHT22;13010;-33.424;-70.614;2023-03-14T06:07:54;10.70;99.90
7349;DHT22;13010;-33.424;-70.614;2023-03-14T06:10:43;10.80;99.90
7349;DHT22;13010;-33.424;-70.614;2023-03-14T06:13:32;10.50;99.90
7349;DHT22;13010;-33.424;-70.614;2023-03-14T06:16:20;10.40;99.90
7349;DHT22;13010;-33.424;-70.614;2023-03-14T06:19:09;10.30;99.90
7349;DHT22;13010;-33.424;-70.614;2023-03-14T06:22:00;10.00;99.90
7349;DHT22;13010;-33.424;-70.614;2023-03-14T06:24:50;9.80;99.90
7349;DHT22;13010;-33.424;-70.614;2023-03-14T06:27:39;9.90;99.90
7349;DHT22;13010;-33.424;-70.614;2023-03-14T06:30:28;10.00;99.90
7349;DHT22;13010;-33.424;-70.614;2023-03-14T06:33:17;10.20;99.90
7349;DHT22;13010;-33.424;-70.614;2023-03-14T06:36:07;10.20;99.90
7349;DHT22;13010;-33.424;-70.614;2023-03-14T06:38:56;10.20;99.90
7349;DHT22;13010;-33.424;-70.614;2023-03-14T06:41:47;10.10;99.90
7349;DHT22;13010;-33.424;-70.614;2023-03-14T06:44:36;10.00;99.90
7349;DHT22;13010;-33.424;-70.614;2023-03-14T06:47:25;10.30;99.90
7349;DHT22;13010;-33.424;-70.614;2023-03-14T06:50:14;10.60;99.90
7349;DHT22;13010;-33.424;-70.614;2023-03-14T06:53:02;10.70;99.90
7349;DHT22;13010;-33.424;-70.614;2023-03-14T06:55:51;10.60;99.90
7349;DHT22;13010;-33.424;-70.614;2023-03-14T06:58:42;10.50;99.90
7349;DHT22;13010;-33.424;-70.614;2023-03-14T07:01:31;10.50;99.90
7349;DHT22;13010;-33.424;-70.614;2023-03-14T07:04:20;10.40;99.90
7349;DHT22;13010;-33.424;-70.614;2023-03-14T07:07:09;10.40;99.90
7349;DHT22;13010;-33.424;-70.614;2023-03-14T07:09:59;10.30;99.90
7349;DHT22;13010;-33.424;-70.614;2023-03-14T07:12:51;10.10;99.90
7349;DHT22;13010;-33.424;-70.614;2023-03-14T07:15:42;10.00;99.90
7349;DHT22;13010;-33.424;-70.614;2023-03-14T07:18:31;10.20;99.90
7349;DHT22;13010;-33.424;-70.614;2023-03-14T07:21:20;10.20;99.90
7349;DHT22;13010;-33.424;-70.614;2023-03-14T07:24:09;10.30;99.90
7349;DHT22;13010;-33.424;-70.614;2023-03-14T07:26:58;10.30;99.90
7349;DHT22;13010;-33.424;-70.614;2023-03-14T07:29:48;10.30;99.90
7349;DHT22;13010;-33.424;-70.614;2023-03-14T07:32:39;10.50;99.90
7349;DHT22;13010;-33.424;-70.614;2023-03-14T07:35:28;10.70;99.90
7349;DHT22;13010;-33.424;-70.614;2023-03-14T07:38:17;10.70;99.90
7349;DHT22;13010;-33.424;-70.614;2023-03-14T07:41:07;10.60;99.90
7349;DHT22;13010;-33.424;-70.614;2023-03-14T07:43:56;10.40;99.90
7349;DHT22;13010;-33.424;-70.614;2023-03-14T07:46:45;10.60;99.90
7349;DHT22;13010;-33.424;-70.614;2023-03-14T07:49:36;10.50;99.90
7349;DHT22;13010;-33.424;-70.614;2023-03-14T07:52:24;10.40;99.90
7349;DHT22;13010;-33.424;-70.614;2023-03-14T07:55:14;10.30;99.90
7349;DHT22;13010;-33.424;-70.614;2023-03-14T07:58:02;10.20;99.90
7349;DHT22;13010;-33.424;-70.614;2023-03-14T08:00:52;10.10;99.90
7349;DHT22;13010;-33.424;-70.614;2023-03-14T08:03:41;10.10;99.90
7349;DHT22;13010;-33.424;-70.614;2023-03-14T08:06:31;10.10;99.90
7349;DHT22;13010;-33.424;-70.614;2023-03-14T08:09:20;9.90;99.90
7349;DHT22;13010;-33.424;-70.614;2023-03-14T08:12:09;9.80;99.90
7349;DHT22;13010;-33.424;-70.614;2023-03-14T08:14:58;9.70;99.90
7349;DHT22;13010;-33.424;-70.614;2023-03-14T08:17:47;9.60;99.90
7349;DHT22;13010;-33.424;-70.614;2023-03-14T08:20:37;9.50;99.90
7349;DHT22;13010;-33.424;-70.614;2023-03-14T08:23:28;9.50;99.90
7349;DHT22;13010;-33.424;-70.614;2023-03-14T08:26:18;9.50;99.90
7349;DHT22;13010;-33.424;-70.614;2023-03-14T08:29:07;9.40;99.90
7349;DHT22;13010;-33.424;-70.614;2023-03-14T08:31:56;9.30;99.90
7349;DHT22;13010;-33.424;-70.614;2023-03-14T08:34:44;9.30;99.90
7349;DHT22;13010;-33.424;-70.614;2023-03-14T08:37:34;9.40;99.90
7349;DHT22;13010;-33.424;-70.614;2023-03-14T08:40:25;9.60;99.90
7349;DHT22;13010;-33.424;-70.614;2023-03-14T08:43:14;9.70;99.90
7349;DHT22;13010;-33.424;-70.614;2023-03-14T08:46:03;9.80;99.90
7349;DHT22;13010;-33.424;-70.614;2023-03-14T08:48:52;9.70;99.90
7349;DHT22;13010;-33.424;-70.614;2023-03-14T08:51:41;9.60;99.90
7349;DHT22;13010;-33.424;-70.614;2023-03-14T08:54:29;9.50;99.90
7349;DHT22;13010;-33.424;-70.614;2023-03-14T08:57:20;9.50;99.90
7349;DHT22;13010;-33.424;-70.614;2023-03-14T09:00:13;9.40;99.90
7349;DHT22;13010;-33.424;-70.614;2023-03-14T09:03:02;9.30;99.90
7349;DHT22;13010;-33.424;-70.614;2023-03-14T09:05:52;9.30;99.90
7349;DHT22;13010;-33.424;-70.614;2023-03-14T09:08:41;9.60;99.90
7349;DHT22;13010;-33.424;-70.614;2023-03-14T09:11:30;9.70;99.90
7349;DHT22;13010;-33.424;-70.614;2023-03-14T09:14:21;9.70;99.90
7349;DHT22;13010;-33.424;-70.614;2023-03-14T09:17:10;9.60;99.90
7349;DHT22;13010;-33.424;-70.614;2023-03-14T09:19:58;9.40;99.90
7349;DHT22;13010;-33.424;-70.614;2023-03-14T09:22:47;9.30;99.90
7349;DHT22;13010;-33.424;-70.614;2023-03-14T09:25:36;9.30;99.90
7349;DHT22;13010;-33.424;-70.614;2023-03-14T09:28:26;9.30;99.90
7349;DHT22;13010;-33.424;-70.614;2023-03-14T09:31:17;9.30;99.90
7349;DHT22;13010;-33.424;-70.614;2023-03-14T09:34:05;9.30;99.90
7349;DHT22;13010;-33.424;-70.614;2023-03-14T09:36:55;9.30;99.90
7349;DHT22;13010;-33.424;-70.614;2023-03-14T09:39:44;9.40;99.90
7349;DHT22;13010;-33.424;-70.614;2023-03-14T09:42:33;9.50;99.90
7349;DHT22;13010;-33.424;-70.614;2023-03-14T09:45:27;9.50;99.90
7349;DHT22;13010;-33.424;-70.614;2023-03-14T09:48:21;9.60;99.90
7349;DHT22;13010;-33.424;-70.614;2023-03-14T09:51:14;9.70;99.90
7349;DHT22;13010;-33.424;-70.614;2023-03-14T09:54:08;9.70;99.90
7349;DHT22;13010;-33.424;-70.614;2023-03-14T10:00:16;9.60;99.90
7349;DHT22;13010;-33.424;-70.614;2023-03-14T10:03:25;9.40;99.90
7349;DHT22;13010;-33.424;-70.614;2023-03-14T10:06:14;9.20;99.90
7349;DHT22;13010;-33.424;-70.614;2023-03-14T10:09:04;9.10;99.90
7349;DHT22;13010;-33.424;-70.614;2023-03-14T10:11:55;9.10;99.90
7349;DHT22;13010;-33.424;-70.614;2023-03-14T10:14:50;9.00;99.90
7349;DHT22;13010;-33.424;-70.614;2023-03-14T10:17:43;8.90;99.90
7349;DHT22;13010;-33.424;-70.614;2023-03-14T10:20:34;8.90;99.90
7349;DHT22;13010;-33.424;-70.614;2023-03-14T10:23:29;9.00;99.90
7349;DHT22;13010;-33.424;-70.614;2023-03-14T10:26:24;9.00;99.90
7349;DHT22;13010;-33.424;-70.614;2023-03-14T10:29:15;8.90;99.90
7349;DHT22;13010;-33.424;-70.614;2023-03-14T10:32:05;8.80;99.90
7349;DHT22;13010;-33.424;-70.614;2023-03-14T10:35:20;8.90;99.90
7349;DHT22;13010;-33.424;-70.614;2023-03-14T10:38:14;9.00;99.90
7349;DHT22;13010;-33.424;-70.614;2023-03-14T10:41:17;9.10;99.90
7349;DHT22;13010;-33.424;-70.614;2023-03-14T10:44:08;9.10;99.90
7349;DHT22;13010;-33.424;-70.614;2023-03-14T10:46:59;9.30;99.90
7349;DHT22;13010;-33.424;-70.614;2023-03-14T10:49:49;9.40;99.90
7349;DHT22;13010;-33.424;-70.614;2023-03-14T10:52:48;9.40;99.90
7349;DHT22;13010;-33.424;-70.614;2023-03-14T10:55:42;9.40;99.90
7349;DHT22;13010;-33.424;-70.614;2023-03-14T10:58:35;9.40;99.90
7349;DHT22;13010;-33.424;-70.614;2023-03-14T11:01:33;9.50;99.90
7349;DHT22;13010;-33.424;-70.614;2023-03-14T11:04:38;9.60;99.90
7349;DHT22;13010;-33.424;-70.614;2023-03-14T11:07:39;9.80;99.90
7349;DHT22;13010;-33.424;-70.614;2023-03-14T11:10:32;10.00;99.90
7349;DHT22;13010;-33.424;-70.614;2023-03-14T11:13:25;10.20;99.90
7349;DHT22;13010;-33.424;-70.614;2023-03-14T11:16:22;10.40;99.90
7349;DHT22;13010;-33.424;-70.614;2023-03-14T11:19:48;10.70;99.90
7349;DHT22;13010;-33.424;-70.614;2023-03-14T11:22:43;11.00;99.90
7349;DHT22;13010;-33.424;-70.614;2023-03-14T11:25:42;11.30;99.90
7349;DHT22;13010;-33.424;-70.614;2023-03-14T11:28:39;11.60;99.90
7349;DHT22;13010;-33.424;-70.614;2023-03-14T11:31:34;11.90;99.90
7349;DHT22;13010;-33.424;-70.614;2023-03-14T11:34:27;12.90;99.90
7349;DHT22;13010;-33.424;-70.614;2023-03-14T11:37:23;18.00;99.90
7349;DHT22;13010;-33.424;-70.614;2023-03-14T11:40:18;22.30;99.90
7349;DHT22;13010;-33.424;-70.614;2023-03-14T11:43:13;21.40;99.90
7349;DHT22;13010;-33.424;-70.614;2023-03-14T11:46:09;18.20;99.90
7349;DHT22;13010;-33.424;-70.614;2023-03-14T11:49:03;20.00;99.90
7349;DHT22;13010;-33.424;-70.614;2023-03-14T11:51:57;25.50;99.90
7349;DHT22;13010;-33.424;-70.614;2023-03-14T11:54:49;28.50;99.90
7349;DHT22;13010;-33.424;-70.614;2023-03-14T11:57:46;30.40;99.90
7349;DHT22;13010;-33.424;-70.614;2023-03-14T12:00:37;31.70;96.50
7349;DHT22;13010;-33.424;-70.614;2023-03-14T12:03:31;32.40;80.70
7349;DHT22;13010;-33.424;-70.614;2023-03-14T12:06:27;33.40;68.70
7349;DHT22;13010;-33.424;-70.614;2023-03-14T12:09:18;34.40;57.60
7349;DHT22;13010;-33.424;-70.614;2023-03-14T12:12:14;34.90;54.80
7349;DHT22;13010;-33.424;-70.614;2023-03-14T12:15:20;35.40;45.00
7349;DHT22;13010;-33.424;-70.614;2023-03-14T12:18:19;36.50;41.70
7349;DHT22;13010;-33.424;-70.614;2023-03-14T12:21:11;37.50;35.70
7349;DHT22;13010;-33.424;-70.614;2023-03-14T12:24:00;38.30;32.90
7349;DHT22;13010;-33.424;-70.614;2023-03-14T12:26:53;38.20;30.10
7349;DHT22;13010;-33.424;-70.614;2023-03-14T12:29:59;38.00;29.50
7349;DHT22;13010;-33.424;-70.614;2023-03-14T12:33:18;38.30;27.80
7349;DHT22;13010;-33.424;-70.614;2023-03-14T12:39:44;40.10;22.80
7349;DHT22;13010;-33.424;-70.614;2023-03-14T12:42:42;40.00;23.40
7349;DHT22;13010;-33.424;-70.614;2023-03-14T12:45:33;42.10;21.80
7349;DHT22;13010;-33.424;-70.614;2023-03-14T12:48:25;41.40;20.00
7349;DHT22;13010;-33.424;-70.614;2023-03-14T12:51:15;42.10;19.10
7349;DHT22;13010;-33.424;-70.614;2023-03-14T12:54:33;41.40;17.70
7349;DHT22;13010;-33.424;-70.614;2023-03-14T12:57:28;42.30;18.70
7349;DHT22;13010;-33.424;-70.614;2023-03-14T13:00:21;42.00;17.80
7349;DHT22;13010;-33.424;-70.614;2023-03-14T13:03:19;43.40;15.30
7349;DHT22;13010;-33.424;-70.614;2023-03-14T13:06:47;45.00;14.30
7349;DHT22;13010;-33.424;-70.614;2023-03-14T13:10:04;44.80;13.90
7349;DHT22;13010;-33.424;-70.614;2023-03-14T13:12:56;43.10;15.10
7349;DHT22;13010;-33.424;-70.614;2023-03-14T13:15:45;44.30;12.60
7349;DHT22;13010;-33.424;-70.614;2023-03-14T13:18:37;43.30;12.60
7349;DHT22;13010;-33.424;-70.614;2023-03-14T13:21:37;44.80;13.70
7349;DHT22;13010;-33.424;-70.614;2023-03-14T13:24:27;46.20;11.10
7349;DHT22;13010;-33.424;-70.614;2023-03-14T13:27:19;47.30;10.40
7349;DHT22;13010;-33.424;-70.614;2023-03-14T13:30:22;48.50;9.20
7349;DHT22;13010;-33.424;-70.614;2023-03-14T13:33:16;49.10;7.40
7349;DHT22;13010;-33.424;-70.614;2023-03-14T13:36:06;49.20;7.80
7349;DHT22;13010;-33.424;-70.614;2023-03-14T13:39:01;50.90;6.10
7349;DHT22;13010;-33.424;-70.614;2023-03-14T13:42:10;50.70;5.70
7349;DHT22;13010;-33.424;-70.614;2023-03-14T13:45:02;50.30;6.00
7349;DHT22;13010;-33.424;-70.614;2023-03-14T13:47:53;49.60;7.10
7349;DHT22;13010;-33.424;-70.614;2023-03-14T13:50:46;51.40;5.70
7349;DHT22;13010;-33.424;-70.614;2023-03-14T13:53:44;51.70;4.40
7349;DHT22;13010;-33.424;-70.614;2023-03-14T13:56:34;51.70;4.60
7349;DHT22;13010;-33.424;-70.614;2023-03-14T13:59:24;49.20;3.80
7349;DHT22;13010;-33.424;-70.614;2023-03-14T14:02:14;50.20;4.20
7349;DHT22;13010;-33.424;-70.614;2023-03-14T14:05:04;48.00;5.50
7349;DHT22;13010;-33.424;-70.614;2023-03-14T14:07:54;48.80;5.80
7349;DHT22;13010;-33.424;-70.614;2023-03-14T14:10:43;51.00;3.10
7349;DHT22;13010;-33.424;-70.614;2023-03-14T14:13:38;50.10;6.10
7349;DHT22;13010;-33.424;-70.614;2023-03-14T14:16:28;50.50;2.50
7349;DHT22;13010;-33.424;-70.614;2023-03-14T14:19:20;47.50;6.00
7349;DHT22;13010;-33.424;-70.614;2023-03-14T14:22:11;48.30;3.30
7349;DHT22;13010;-33.424;-70.614;2023-03-14T14:25:01;48.30;6.90
7349;DHT22;13010;-33.424;-70.614;2023-03-14T14:27:51;46.70;8.40
7349;DHT22;13010;-33.424;-70.614;2023-03-14T14:30:44;50.00;2.50
7349;DHT22;13010;-33.424;-70.614;2023-03-14T14:33:40;51.70;2.40
7349;DHT22;13010;-33.424;-70.614;2023-03-14T14:36:37;53.20;1.00
7349;DHT22;13010;-33.424;-70.614;2023-03-14T14:39:34;53.90;3.10
7349;DHT22;13010;-33.424;-70.614;2023-03-14T14:42:26;51.50;1.00
7349;DHT22;13010;-33.424;-70.614;2023-03-14T14:45:23;51.50;6.90
7349;DHT22;13010;-33.424;-70.614;2023-03-14T14:48:20;53.50;1.30
7349;DHT22;13010;-33.424;-70.614;2023-03-14T14:51:10;48.30;1.30
7349;DHT22;13010;-33.424;-70.614;2023-03-14T14:54:12;46.50;2.80
7349;DHT22;13010;-33.424;-70.614;2023-03-14T14:57:12;46.70;2.80
7349;DHT22;13010;-33.424;-70.614;2023-03-14T15:00:17;50.10;5.10
7349;DHT22;13010;-33.424;-70.614;2023-03-14T15:03:16;52.60;1.00
7349;DHT22;13010;-33.424;-70.614;2023-03-14T15:06:05;52.10;3.10
7349;DHT22;13010;-33.424;-70.614;2023-03-14T15:08:55;55.00;1.20
7349;DHT22;13010;-33.424;-70.614;2023-03-14T15:11:44;54.70;2.10
7349;DHT22;13010;-33.424;-70.614;2023-03-14T15:14:36;52.30;1.00
7349;DHT22;13010;-33.424;-70.614;2023-03-14T15:17:25;50.40;1.10
7349;DHT22;13010;-33.424;-70.614;2023-03-14T15:20:20;49.70;3.30
7349;DHT22;13010;-33.424;-70.614;2023-03-14T15:23:18;51.40;1.70
7349;DHT22;13010;-33.424;-70.614;2023-03-14T15:26:17;51.80;2.00
7349;DHT22;13010;-33.424;-70.614;2023-03-14T15:29:10;49.30;4.20
7349;DHT22;13010;-33.424;-70.614;2023-03-14T15:31:59;52.00;2.60
7349;DHT22;13010;-33.424;-70.614;2023-03-14T15:34:51;51.30;1.00
7349;DHT22;13010;-33.424;-70.614;2023-03-14T15:37:42;49.40;1.00
7349;DHT22;13010;-33.424;-70.614;2023-03-14T15:40:32;47.30;2.70
7349;DHT22;13010;-33.424;-70.614;2023-03-14T15:43:21;49.30;1.70
7349;DHT22;13010;-33.424;-70.614;2023-03-14T15:46:13;47.90;4.10
7349;DHT22;13010;-33.424;-70.614;2023-03-14T15:53:07;51.40;1.00
7349;DHT22;13010;-33.424;-70.614;2023-03-14T15:56:35;50.30;1.00
7349;DHT22;13010;-33.424;-70.614;2023-03-14T15:59:57;46.80;1.40
7349;DHT22;13010;-33.424;-70.614;2023-03-14T16:03:21;43.20;3.70
7349;DHT22;13010;-33.424;-70.614;2023-03-14T16:07:08;44.20;4.30
7349;DHT22;13010;-33.424;-70.614;2023-03-14T16:10:16;47.60;2.80
7349;DHT22;13010;-33.424;-70.614;2023-03-14T16:13:39;46.10;3.10
7349;DHT22;13010;-33.424;-70.614;2023-03-14T16:16:47;48.00;3.30
7349;DHT22;13010;-33.424;-70.614;2023-03-14T16:19:45;49.00;2.20
7349;DHT22;13010;-33.424;-70.614;2023-03-14T16:22:35;47.50;2.60
7349;DHT22;13010;-33.424;-70.614;2023-03-14T16:25:26;47.70;3.60
7349;DHT22;13010;-33.424;-70.614;2023-03-14T16:28:15;49.70;3.70
7349;DHT22;13010;-33.424;-70.614;2023-03-14T16:31:06;47.40;4.40
7349;DHT22;13010;-33.424;-70.614;2023-03-14T16:33:55;46.50;4.70
7349;DHT22;13010;-33.424;-70.614;2023-03-14T16:36:48;47.60;4.30
7349;DHT22;13010;-33.424;-70.614;2023-03-14T16:39:37;46.90;4.20
7349;DHT22;13010;-33.424;-70.614;2023-03-14T16:42:28;46.30;5.20
7349;DHT22;13010;-33.424;-70.614;2023-03-14T16:45:18;45.90;5.10
7349;DHT22;13010;-33.424;-70.614;2023-03-14T16:48:07;43.40;7.70
7349;DHT22;13010;-33.424;-70.614;2023-03-14T16:50:56;42.20;7.40
7349;DHT22;13010;-33.424;-70.614;2023-03-14T16:53:45;40.40;8.70
7349;DHT22;13010;-33.424;-70.614;2023-03-14T16:56:34;39.50;9.70
7349;DHT22;13010;-33.424;-70.614;2023-03-14T16:59:26;40.30;10.80
7349;DHT22;13010;-33.424;-70.614;2023-03-14T17:02:15;39.30;10.60
7349;DHT22;13010;-33.424;-70.614;2023-03-14T17:05:04;34.40;15.30
7349;DHT22;13010;-33.424;-70.614;2023-03-14T17:07:53;29.90;22.10
7349;DHT22;13010;-33.424;-70.614;2023-03-14T17:10:42;28.10;33.80
7349;DHT22;13010;-33.424;-70.614;2023-03-14T17:13:31;28.40;50.00
7349;DHT22;13010;-33.424;-70.614;2023-03-14T17:16:25;28.60;48.10
7349;DHT22;13010;-33.424;-70.614;2023-03-14T17:19:14;29.00;47.40
7349;DHT22;13010;-33.424;-70.614;2023-03-14T17:22:03;29.30;52.10
7349;DHT22;13010;-33.424;-70.614;2023-03-14T17:24:52;28.70;53.20
7349;DHT22;13010;-33.424;-70.614;2023-03-14T17:27:42;29.20;50.90
7349;DHT22;13010;-33.424;-70.614;2023-03-14T17:30:33;29.20;51.40
7349;DHT22;13010;-33.424;-70.614;2023-03-14T17:33:27;35.00;32.80
7349;DHT22;13010;-33.424;-70.614;2023-03-14T17:36:17;34.50;29.40
7349;DHT22;13010;-33.424;-70.614;2023-03-14T17:39:07;35.30;29.50
7349;DHT22;13010;-33.424;-70.614;2023-03-14T17:42:06;35.50;29.60
7349;DHT22;13010;-33.424;-70.614;2023-03-14T17:44:57;36.10;27.90
7349;DHT22;13010;-33.424;-70.614;2023-03-14T17:47:46;34.90;29.40
7349;DHT22;13010;-33.424;-70.614;2023-03-14T17:50:36;35.70;29.50
7349;DHT22;13010;-33.424;-70.614;2023-03-14T17:53:26;36.50;26.80